sensor_id;sensor_type;location;lat;lon;timestamp;temperature;humidity
16114;DHT22;8161;-33.910;151.156;2023-04-01T00:02:28;20.30;99.90
16114;DHT22;8161;-33.910;151.156;2023-04-01T00:04:55;20.40;99.90
16114;DHT22;8161;-33.910;151.156;2023-04-01T00:07:26;20.20;99.90
16114;DHT22;8161;-33.910;151.156;2023-04-01T00:09:53;19.90;99.90
16114;DHT22;8161;-33.910;151.156;2023-04-01T00:12:21;20.00;99.90
16114;DHT22;8161;-33.910;151.156;2023-04-01T00:14:48;20.00;99.90
16114;DHT22;8161;-33.910;151.156;2023-04-01T00:17:15;19.70;99.90
16114;DHT22;8161;-33.910;151.156;2023-04-01T00:19:43;19.70;99.90
16114;DHT22;8161;-33.910;151.156;2023-04-01T00:22:10;19.50;99.90
16114;DHT22;8161;-33.910;151.156;2023-04-01T00:24:38;19.70;99.90
16114;DHT22;8161;-33.910;151.156;2023-04-01T00:27:05;19.50;99.90
16114;DHT22;8161;-33.910;151.156;2023-04-01T00:29:35;19.50;99.90
16114;DHT22;8161;-33.910;151.156;2023-04-01T00:32:02;19.50;99.90
16114;DHT22;8161;-33.910;151.156;2023-04-01T00:34:29;19.40;99.90
16114;DHT22;8161;-33.910;151.156;2023-04-01T00:36:57;19.40;99.90
16114;DHT22;8161;-33.910;151.156;2023-04-01T00:39:25;19.40;99.90
16114;DHT22;8161;-33.910;151.156;2023-04-01T00:41:52;19.40;99.90
16114;DHT22;8161;-33.910;151.156;2023-04-01T00:44:23;19.10;99.90
16114;DHT22;8161;-33.910;151.156;2023-04-01T00:46:51;19.30;99.90
16114;DHT22;8161;-33.910;151.156;2023-04-01T00:49:25;19.30;99.90
16114;DHT22;8161;-33.910;151.156;2023-04-01T00:51:55;19.20;99.90
16114;DHT22;8161;-33.910;151.156;2023-04-01T00:54:25;19.20;99.90
16114;DHT22;8161;-33.910;151.156;2023-04-01T00:59:33;19.30;99.90
16114;DHT22;8161;-33.910;151.156;2023-04-01T01:02:06;19.30;99.90
16114;DHT22;8161;-33.910;151.156;2023-04-01T01:04:35;19.20;99.90
16114;DHT22;8161;-33.910;151.156;2023-04-01T01:07:22;19.30;99.90
16114;DHT22;8161;-33.910;151.156;2023-04-01T01:12:45;19.40;99.90
16114;DHT22;8161;-33.910;151.156;2023-04-01T01:15:44;19.30;99.90
16114;DHT22;8161;-33.910;151.156;2023-04-01T01:29:39;19.40;99.90
16114;DHT22;8161;-33.910;151.156;2023-04-01T01:32:30;19.40;99.90
16114;DHT22;8161;-33.910;151.156;2023-04-01T01:37:43;19.40;99.90
16114;DHT22;8161;-33.910;151.156;2023-04-01T01:40:13;19.40;99.90
16114;DHT22;8161;-33.910;151.156;2023-04-01T01:42:49;19.40;99.90
16114;DHT22;8161;-33.910;151.156;2023-04-01T01:45:20;19.30;99.90
16114;DHT22;8161;-33.910;151.156;2023-04-01T01:47:49;19.40;99.90
16114;DHT22;8161;-33.910;151.156;2023-04-01T01:50:18;19.50;99.90
16114;DHT22;8161;-33.910;151.156;2023-04-01T01:52:46;19.60;99.90
16114;DHT22;8161;-33.910;151.156;2023-04-01T01:55:32;19.50;99.90
16114;DHT22;8161;-33.910;151.156;2023-04-01T01:58:45;19.60;99.90
16114;DHT22;8161;-33.910;151.156;2023-04-01T02:01:06;19.60;99.90
16114;DHT22;8161;-33.910;151.156;2023-04-01T02:03:37;19.60;99.90
16114;DHT22;8161;-33.910;151.156;2023-04-01T02:06:11;19.60;99.90
16114;DHT22;8161;-33.910;151.156;2023-04-01T02:09:04;19.70;99.90
16114;DHT22;8161;-33.910;151.156;2023-04-01T02:17:18;19.50;99.90
16114;DHT22;8161;-33.910;151.156;2023-04-01T02:19:56;19.50;99.90
16114;DHT22;8161;-33.910;151.156;2023-04-01T02:22:26;19.40;99.90
16114;DHT22;8161;-33.910;151.156;2023-04-01T02:25:00;19.20;99.90
16114;DHT22;8161;-33.910;151.156;2023-04-01T02:27:28;19.20;99.90
16114;DHT22;8161;-33.910;151.156;2023-04-01T02:29:57;19.10;99.90
16114;DHT22;8161;-33.910;151.156;2023-04-01T02:32:28;19.10;99.90
16114;DHT22;8161;-33.910;151.156;2023-04-01T02:34:56;18.90;99.90
16114;DHT22;8161;-33.910;151.156;2023-04-01T02:37:25;18.80;99.90
16114;DHT22;8161;-33.910;151.156;2023-04-01T02:39:52;18.90;99.90
16114;DHT22;8161;-33.910;151.156;2023-04-01T02:42:20;18.80;99.90
16114;DHT22;8161;-33.910;151.156;2023-04-01T02:44:47;18.70;99.90
16114;DHT22;8161;-33.910;151.156;2023-04-01T02:47:14;18.60;99.90
16114;DHT22;8161;-33.910;151.156;2023-04-01T02:49:41;18.40;99.90
16114;DHT22;8161;-33.910;151.156;2023-04-01T02:52:09;18.40;99.90
16114;DHT22;8161;-33.910;151.156;2023-04-01T02:54:36;18.40;99.90
16114;DHT22;8161;-33.910;151.156;2023-04-01T02:57:03;18.40;99.90
16114;DHT22;8161;-33.910;151.156;2023-04-01T02:59:30;18.40;99.90
16114;DHT22;8161;-33.910;151.156;2023-04-01T03:01:58;18.40;99.90
16114;DHT22;8161;-33.910;151.156;2023-04-01T03:04:25;18.40;99.90
16114;DHT22;8161;-33.910;151.156;2023-04-01T03:06:52;18.40;99.90
16114;DHT22;8161;-33.910;151.156;2023-04-01T03:09:19;18.50;99.90
16114;DHT22;8161;-33.910;151.156;2023-04-01T03:11:46;18.50;99.90
16114;DHT22;8161;-33.910;151.156;2023-04-01T03:14:14;18.40;99.90
16114;DHT22;8161;-33.910;151.156;2023-04-01T03:16:41;18.60;99.90
16114;DHT22;8161;-33.910;151.156;2023-04-01T03:19:08;19.80;99.90
16114;DHT22;8161;-33.910;151.156;2023-04-01T03:21:36;18.70;99.90
16114;DHT22;8161;-33.910;151.156;2023-04-01T03:24:03;18.80;99.90
16114;DHT22;8161;-33.910;151.156;2023-04-01T03:26:33;18.80;99.90
16114;DHT22;8161;-33.910;151.156;2023-04-01T03:29:00;18.80;99.90
16114;DHT22;8161;-33.910;151.156;2023-04-01T03:31:27;18.90;99.90
16114;DHT22;8161;-33.910;151.156;2023-04-01T03:33:55;18.80;99.90
16114;DHT22;8161;-33.910;151.156;2023-04-01T03:36:22;18.80;99.90
16114;DHT22;8161;-33.910;151.156;2023-04-01T03:38:49;18.80;99.90
16114;DHT22;8161;-33.910;151.156;2023-04-01T03:41:19;18.80;99.90
16114;DHT22;8161;-33.910;151.156;2023-04-01T03:43:47;18.80;99.90
16114;DHT22;8161;-33.910;151.156;2023-04-01T03:46:19;18.90;99.90
16114;DHT22;8161;-33.910;151.156;2023-04-01T03:48:50;19.00;99.90
16114;DHT22;8161;-33.910;151.156;2023-04-01T03:51:17;19.10;99.90
16114;DHT22;8161;-33.910;151.156;2023-04-01T03:53:44;19.20;99.90
16114;DHT22;8161;-33.910;151.156;2023-04-01T03:56:14;19.20;99.90
16114;DHT22;8161;-33.910;151.156;2023-04-01T03:58:41;19.20;99.90
16114;DHT22;8161;-33.910;151.156;2023-04-01T04:01:20;19.20;99.90
16114;DHT22;8161;-33.910;151.156;2023-04-01T04:03:48;19.20;99.90
16114;DHT22;8161;-33.910;151.156;2023-04-01T04:06:17;19.20;99.90
16114;DHT22;8161;-33.910;151.156;2023-04-01T04:08:45;19.20;99.90
16114;DHT22;8161;-33.910;151.156;2023-04-01T04:11:12;19.30;99.90
16114;DHT22;8161;-33.910;151.156;2023-04-01T04:13:40;19.40;99.90
16114;DHT22;8161;-33.910;151.156;2023-04-01T04:16:07;19.40;99.90
16114;DHT22;8161;-33.910;151.156;2023-04-01T04:18:36;19.30;99.90
16114;DHT22;8161;-33.910;151.156;2023-04-01T04:21:04;19.20;99.90
16114;DHT22;8161;-33.910;151.156;2023-04-01T04:23:32;19.10;99.90
16114;DHT22;8161;-33.910;151.156;2023-04-01T04:26:03;18.90;99.90
16114;DHT22;8161;-33.910;151.156;2023-04-01T04:28:31;18.80;99.90
16114;DHT22;8161;-33.910;151.156;2023-04-01T04:30:58;18.70;99.90
16114;DHT22;8161;-33.910;151.156;2023-04-01T04:33:27;18.70;99.90
16114;DHT22;8161;-33.910;151.156;2023-04-01T04:35:58;18.80;99.90
16114;DHT22;8161;-33.910;151.156;2023-04-01T04:38:26;18.90;99.90
16114;DHT22;8161;-33.910;151.156;2023-04-01T04:40:54;18.90;99.90
16114;DHT22;8161;-33.910;151.156;2023-04-01T04:43:22;18.90;99.90
16114;DHT22;8161;-33.910;151.156;2023-04-01T04:45:49;18.90;99.90
16114;DHT22;8161;-33.910;151.156;2023-04-01T04:48:17;18.80;99.90
16114;DHT22;8161;-33.910;151.156;2023-04-01T04:50:49;19.00;99.90
16114;DHT22;8161;-33.910;151.156;2023-04-01T04:53:18;18.90;99.90
16114;DHT22;8161;-33.910;151.156;2023-04-01T04:55:47;18.80;99.90
16114;DHT22;8161;-33.910;151.156;2023-04-01T04:58:15;18.80;99.90
16114;DHT22;8161;-33.910;151.156;2023-04-01T05:00:44;18.70;99.90
16114;DHT22;8161;-33.910;151.156;2023-04-01T05:03:12;18.90;99.90
16114;DHT22;8161;-33.910;151.156;2023-04-01T05:05:47;18.80;99.90
16114;DHT22;8161;-33.910;151.156;2023-04-01T05:08:14;18.90;99.90
16114;DHT22;8161;-33.910;151.156;2023-04-01T05:10:41;19.00;99.90
16114;DHT22;8161;-33.910;151.156;2023-04-01T05:13:09;19.10;99.90
16114;DHT22;8161;-33.910;151.156;2023-04-01T05:15:36;19.20;99.90
16114;DHT22;8161;-33.910;151.156;2023-04-01T05:18:04;19.30;99.90
16114;DHT22;8161;-33.910;151.156;2023-04-01T05:20:34;19.50;99.90
16114;DHT22;8161;-33.910;151.156;2023-04-01T05:23:01;19.60;99.90
16114;DHT22;8161;-33.910;151.156;2023-04-01T05:25:29;19.70;99.90
16114;DHT22;8161;-33.910;151.156;2023-04-01T05:27:56;19.80;99.90
16114;DHT22;8161;-33.910;151.156;2023-04-01T05:30:23;19.90;99.90
16114;DHT22;8161;-33.910;151.156;2023-04-01T05:32:50;20.00;99.90
16114;DHT22;8161;-33.910;151.156;2023-04-01T05:35:18;20.10;99.90
16114;DHT22;8161;-33.910;151.156;2023-04-01T05:37:45;20.30;99.90
16114;DHT22;8161;-33.910;151.156;2023-04-01T05:40:12;20.50;99.90
16114;DHT22;8161;-33.910;151.156;2023-04-01T05:42:39;20.70;99.90
16114;DHT22;8161;-33.910;151.156;2023-04-01T05:45:08;20.90;99.90
16114;DHT22;8161;-33.910;151.156;2023-04-01T05:47:35;21.20;99.90
16114;DHT22;8161;-33.910;151.156;2023-04-01T05:50:03;21.30;99.90
16114;DHT22;8161;-33.910;151.156;2023-04-01T05:52:30;21.60;99.90
16114;DHT22;8161;-33.910;151.156;2023-04-01T05:54:57;21.70;99.90
16114;DHT22;8161;-33.910;151.156;2023-04-01T05:57:27;21.60;99.90
16114;DHT22;8161;-33.910;151.156;2023-04-01T06:00:04;21.50;99.90
16114;DHT22;8161;-33.910;151.156;2023-04-01T06:02:31;21.40;99.90
16114;DHT22;8161;-33.910;151.156;2023-04-01T06:05:11;21.30;99.90
16114;DHT22;8161;-33.910;151.156;2023-04-01T06:07:39;21.10;99.90
16114;DHT22;8161;-33.910;151.156;2023-04-01T06:38:41;20.60;99.90
16114;DHT22;8161;-33.910;151.156;2023-04-01T06:46:48;20.60;99.90
16114;DHT22;8161;-33.910;151.156;2023-04-01T06:55:18;20.60;99.90
16114;DHT22;8161;-33.910;151.156;2023-04-01T06:57:51;20.60;99.90
16114;DHT22;8161;-33.910;151.156;2023-04-01T07:03:05;21.00;99.90
16114;DHT22;8161;-33.910;151.156;2023-04-01T07:05:34;21.00;99.90
16114;DHT22;8161;-33.910;151.156;2023-04-01T07:08:17;20.90;99.90
16114;DHT22;8161;-33.910;151.156;2023-04-01T07:16:11;20.70;99.90
16114;DHT22;8161;-33.910;151.156;2023-04-01T07:21:49;20.50;99.90
16114;DHT22;8161;-33.910;151.156;2023-04-01T07:24:34;20.50;99.90
16114;DHT22;8161;-33.910;151.156;2023-04-01T07:27:02;20.40;99.90
16114;DHT22;8161;-33.910;151.156;2023-04-01T07:29:32;20.30;99.90
16114;DHT22;8161;-33.910;151.156;2023-04-01T07:48:26;20.00;99.90
16114;DHT22;8161;-33.910;151.156;2023-04-01T07:50:56;20.00;99.90
16114;DHT22;8161;-33.910;151.156;2023-04-01T07:53:43;20.00;99.90
16114;DHT22;8161;-33.910;151.156;2023-04-01T08:07:24;20.00;99.90
16114;DHT22;8161;-33.910;151.156;2023-04-01T08:09:59;19.90;99.90
16114;DHT22;8161;-33.910;151.156;2023-04-01T08:12:38;19.90;99.90
16114;DHT22;8161;-33.910;151.156;2023-04-01T08:17:52;19.90;99.90
16114;DHT22;8161;-33.910;151.156;2023-04-01T08:23:39;19.80;99.90
16114;DHT22;8161;-33.910;151.156;2023-04-01T08:34:20;19.90;99.90
16114;DHT22;8161;-33.910;151.156;2023-04-01T08:42:31;19.80;99.90
16114;DHT22;8161;-33.910;151.156;2023-04-01T08:48:04;19.80;99.90
16114;DHT22;8161;-33.910;151.156;2023-04-01T08:50:50;19.80;99.90
16114;DHT22;8161;-33.910;151.156;2023-04-01T09:38:28;19.80;99.90
16114;DHT22;8161;-33.910;151.156;2023-04-01T09:51:49;19.70;99.90
16114;DHT22;8161;-33.910;151.156;2023-04-01T09:54:32;19.60;99.90
16114;DHT22;8161;-33.910;151.156;2023-04-01T11:11:00;19.00;99.90
16114;DHT22;8161;-33.910;151.156;2023-04-01T11:14:09;18.90;99.90
16114;DHT22;8161;-33.910;151.156;2023-04-01T11:16:54;18.90;99.90
16114;DHT22;8161;-33.910;151.156;2023-04-01T11:33:23;18.70;99.90
16114;DHT22;8161;-33.910;151.156;2023-04-01T11:38:55;18.90;99.90
16114;DHT22;8161;-33.910;151.156;2023-04-01T11:41:38;18.90;99.90
16114;DHT22;8161;-33.910;151.156;2023-04-01T11:44:24;18.90;99.90
16114;DHT22;8161;-33.910;151.156;2023-04-01T11:47:13;18.70;99.90
16114;DHT22;8161;-33.910;151.156;2023-04-01T12:05:54;18.60;99.90
16114;DHT22;8161;-33.910;151.156;2023-04-01T12:08:41;18.60;99.90
16114;DHT22;8161;-33.910;151.156;2023-04-01T12:22:41;18.60;99.90
16114;DHT22;8161;-33.910;151.156;2023-04-01T12:25:07;18.60;99.90
16114;DHT22;8161;-33.910;151.156;2023-04-01T12:27:44;18.70;99.90
16114;DHT22;8161;-33.910;151.156;2023-04-01T12:47:08;18.00;99.90
16114;DHT22;8161;-33.910;151.156;2023-04-01T12:55:38;17.90;99.90
16114;DHT22;8161;-33.910;151.156;2023-04-01T13:53:51;17.90;99.90
16114;DHT22;8161;-33.910;151.156;2023-04-01T14:12:50;18.20;99.90
16114;DHT22;8161;-33.910;151.156;2023-04-01T14:18:24;18.50;99.90
16114;DHT22;8161;-33.910;151.156;2023-04-01T14:43:47;17.90;99.90
16114;DHT22;8161;-33.910;151.156;2023-04-01T14:51:55;18.20;99.90
16114;DHT22;8161;-33.910;151.156;2023-04-01T14:54:35;18.10;99.90
16114;DHT22;8161;-33.910;151.156;2023-04-01T15:05:27;17.90;99.90
16114;DHT22;8161;-33.910;151.156;2023-04-01T15:10:53;18.30;99.90
16114;DHT22;8161;-33.910;151.156;2023-04-01T15:13:45;17.90;99.90
16114;DHT22;8161;-33.910;151.156;2023-04-01T15:19:22;18.20;99.90
16114;DHT22;8161;-33.910;151.156;2023-04-01T15:22:01;18.20;99.90
16114;DHT22;8161;-33.910;151.156;2023-04-01T15:30:06;18.40;99.90
16114;DHT22;8161;-33.910;151.156;2023-04-01T15:32:56;17.70;99.90
16114;DHT22;8161;-33.910;151.156;2023-04-01T15:35:33;18.20;99.90
16114;DHT22;8161;-33.910;151.156;2023-04-01T15:38:16;18.20;99.90
16114;DHT22;8161;-33.910;151.156;2023-04-01T15:43:41;17.90;99.90
16114;DHT22;8161;-33.910;151.156;2023-04-01T15:46:30;18.00;99.90
16114;DHT22;8161;-33.910;151.156;2023-04-01T15:49:15;18.20;99.90
16114;DHT22;8161;-33.910;151.156;2023-04-01T15:52:03;22.30;99.90
16114;DHT22;8161;-33.910;151.156;2023-04-01T15:57:42;18.00;99.90
16114;DHT22;8161;-33.910;151.156;2023-04-01T16:00:29;18.10;99.90
16114;DHT22;8161;-33.910;151.156;2023-04-01T16:03:07;18.20;99.90
16114;DHT22;8161;-33.910;151.156;2023-04-01T16:14:17;18.30;99.90
16114;DHT22;8161;-33.910;151.156;2023-04-01T16:24:46;18.20;99.90
16114;DHT22;8161;-33.910;151.156;2023-04-01T16:30:25;18.10;99.90
16114;DHT22;8161;-33.910;151.156;2023-04-01T16:33:19;18.10;99.90
16114;DHT22;8161;-33.910;151.156;2023-04-01T16:39:07;18.00;99.90
16114;DHT22;8161;-33.910;151.156;2023-04-01T16:41:49;18.00;99.90
16114;DHT22;8161;-33.910;151.156;2023-04-01T16:44:26;18.00;99.90
16114;DHT22;8161;-33.910;151.156;2023-04-01T16:46:58;18.00;99.90
16114;DHT22;8161;-33.910;151.156;2023-04-01T16:49:41;18.00;99.90
16114;DHT22;8161;-33.910;151.156;2023-04-01T16:57:31;18.00;99.90
16114;DHT22;8161;-33.910;151.156;2023-04-01T17:03:15;18.00;99.90
16114;DHT22;8161;-33.910;151.156;2023-04-01T17:11:19;17.90;99.90
16114;DHT22;8161;-33.910;151.156;2023-04-01T17:16:48;18.00;99.90
16114;DHT22;8161;-33.910;151.156;2023-04-01T17:22:27;18.00;99.90
16114;DHT22;8161;-33.910;151.156;2023-04-01T17:27:39;18.20;99.90
16114;DHT22;8161;-33.910;151.156;2023-04-01T17:30:23;18.10;99.90
16114;DHT22;8161;-33.910;151.156;2023-04-01T17:35:50;18.20;99.90
16114;DHT22;8161;-33.910;151.156;2023-04-01T17:46:37;17.70;99.90
16114;DHT22;8161;-33.910;151.156;2023-04-01T17:49:24;18.00;99.90
16114;DHT22;8161;-33.910;151.156;2023-04-01T17:52:12;18.10;99.90
16114;DHT22;8161;-33.910;151.156;2023-04-01T18:02:55;17.70;99.90
16114;DHT22;8161;-33.910;151.156;2023-04-01T18:08:15;17.70;99.90
16114;DHT22;8161;-33.910;151.156;2023-04-01T18:22:21;17.30;99.90
16114;DHT22;8161;-33.910;151.156;2023-04-01T18:27:47;17.60;99.90
16114;DHT22;8161;-33.910;151.156;2023-04-01T18:41:30;17.90;99.90
16114;DHT22;8161;-33.910;151.156;2023-04-01T18:52:25;17.40;99.90
16114;DHT22;8161;-33.910;151.156;2023-04-01T18:57:24;17.80;99.90
16114;DHT22;8161;-33.910;151.156;2023-04-01T18:59:57;17.90;99.90
16114;DHT22;8161;-33.910;151.156;2023-04-01T19:03:31;17.80;99.90
16114;DHT22;8161;-33.910;151.156;2023-04-01T19:05:41;17.60;99.90
16114;DHT22;8161;-33.910;151.156;2023-04-01T19:08:37;18.00;99.90
16114;DHT22;8161;-33.910;151.156;2023-04-01T19:31:02;17.70;99.90
16114;DHT22;8161;-33.910;151.156;2023-04-01T19:36:29;17.60;99.90
16114;DHT22;8161;-33.910;151.156;2023-04-01T19:42:03;17.50;99.90
16114;DHT22;8161;-33.910;151.156;2023-04-01T19:49:56;17.80;99.90
16114;DHT22;8161;-33.910;151.156;2023-04-01T19:52:37;17.60;99.90
16114;DHT22;8161;-33.910;151.156;2023-04-01T19:58:02;17.60;99.90
16114;DHT22;8161;-33.910;151.156;2023-04-01T20:03:54;17.70;99.90
16114;DHT22;8161;-33.910;151.156;2023-04-01T20:14:55;18.20;99.90
16114;DHT22;8161;-33.910;151.156;2023-04-01T20:28:25;18.40;99.90
16114;DHT22;8161;-33.910;151.156;2023-04-01T20:58:31;17.90;99.90
16114;DHT22;8161;-33.910;151.156;2023-04-01T21:14:54;17.90;99.90
16114;DHT22;8161;-33.910;151.156;2023-04-01T21:17:49;17.80;99.90
16114;DHT22;8161;-33.910;151.156;2023-04-01T21:20:40;17.30;99.90
16114;DHT22;8161;-33.910;151.156;2023-04-01T21:42:50;17.50;99.90
16114;DHT22;8161;-33.910;151.156;2023-04-01T22:00:07;16.80;99.90
16114;DHT22;8161;-33.910;151.156;2023-04-01T22:11:23;17.10;99.90
16114;DHT22;8161;-33.910;151.156;2023-04-01T22:13:59;17.60;99.90
16114;DHT22;8161;-33.910;151.156;2023-04-01T22:24:35;17.10;99.90
16114;DHT22;8161;-33.910;151.156;2023-04-01T22:27:27;17.70;99.90
16114;DHT22;8161;-33.910;151.156;2023-04-01T22:32:48;17.50;99.90
16114;DHT22;8161;-33.910;151.156;2023-04-01T22:35:36;17.70;99.90
16114;DHT22;8161;-33.910;151.156;2023-04-01T22:39:14;17.10;99.90
16114;DHT22;8161;-33.910;151.156;2023-04-01T22:41:24;17.70;99.90
16114;DHT22;8161;-33.910;151.156;2023-04-01T22:54:34;17.80;99.90
16114;DHT22;8161;-33.910;151.156;2023-04-01T23:05:55;17.90;99.90
16114;DHT22;8161;-33.910;151.156;2023-04-01T23:22:38;18.00;99.90
16114;DHT22;8161;-33.910;151.156;2023-04-01T23:36:00;18.10;99.90
16114;DHT22;8161;-33.910;151.156;2023-04-01T23:38:42;18.20;99.90
16114;DHT22;8161;-33.910;151.156;2023-04-01T23:41:27;18.10;99.90
16114;DHT22;8161;-33.910;151.156;2023-04-01T23:44:10;18.10;99.90
16114;DHT22;8161;-33.910;151.156;2023-04-01T23:46:40;18.40;99.90
16114;DHT22;8161;-33.910;151.156;2023-04-01T23:49:19;18.50;99.90
16114;DHT22;8161;-33.910;151.156;2023-04-01T23:51:56;18.70;99.90
16114;DHT22;8161;-33.910;151.156;2023-04-01T23:54:31;18.20;99.90
16114;DHT22;8161;-33.910;151.156;2023-04-01T23:56:59;19.40;99.90
16114;DHT22;8161;-33.910;151.156;2023-04-01T23:59:34;18.90;99.90
